createdAt,value
2018-09-14T00:00:49.693Z,4.10
2018-09-14T00:03:17.708Z,4.63
2018-09-14T00:05:45.704Z,4.00
2018-09-14T00:08:13.716Z,5.63
2018-09-14T00:10:41.704Z,6.50
2018-09-14T00:13:09.721Z,5.40
2018-09-14T00:15:37.760Z,5.20
2018-09-14T00:18:06.073Z,5.73
2018-09-14T00:20:34.051Z,4.33
2018-09-14T00:23:02.188Z,8.57
2018-09-14T00:25:30.177Z,4.43
2018-09-14T00:27:58.197Z,4.03
2018-09-14T00:30:26.213Z,4.50
2018-09-14T00:32:54.213Z,4.50
2018-09-14T00:35:22.229Z,5.77
2018-09-14T00:37:50.229Z,6.70
2018-09-14T00:40:18.220Z,12.13
2018-09-14T00:42:46.208Z,4.43
2018-09-14T00:45:14.204Z,5.47
2018-09-14T00:47:42.218Z,5.40
2018-09-14T00:50:10.242Z,5.37
2018-09-14T00:52:38.247Z,5.90
2018-09-14T00:55:06.246Z,4.10
2018-09-14T00:57:34.297Z,5.97
2018-09-14T01:00:02.354Z,4.00
2018-09-14T01:02:30.440Z,4.97
2018-09-14T01:04:58.444Z,6.50
2018-09-14T01:07:26.434Z,4.00
2018-09-14T01:09:54.465Z,5.40
2018-09-14T01:12:22.468Z,5.47
2018-09-14T01:14:50.462Z,10.80
2018-09-14T01:17:18.584Z,4.20
2018-09-14T01:19:46.596Z,5.20
2018-09-14T01:22:14.601Z,10.37
2018-09-14T01:24:42.620Z,4.30
2018-09-14T01:27:13.646Z,5.17
2018-09-14T01:29:41.662Z,16.10
2018-09-14T01:32:09.680Z,3.10
2018-09-14T01:34:37.713Z,3.07
2018-09-14T01:37:05.701Z,3.20
2018-09-14T01:39:33.698Z,8.73
2018-09-14T01:42:01.703Z,3.83
2018-09-14T01:44:29.781Z,3.87
2018-09-14T01:46:57.769Z,8.17
2018-09-14T01:49:25.776Z,4.57
2018-09-14T01:51:53.776Z,23.67
2018-09-14T01:54:21.788Z,3.20
2018-09-14T01:56:49.770Z,4.13
2018-09-14T01:59:17.760Z,3.63
2018-09-14T02:01:45.808Z,34.07
2018-09-14T02:04:13.798Z,11.33
2018-09-14T02:06:41.823Z,12.67
2018-09-14T02:09:10.761Z,29.70
2018-09-14T02:11:38.818Z,65.33
2018-09-14T02:14:07.000Z,118.83
2018-09-14T02:16:35.399Z,16.73
2018-09-14T02:19:03.548Z,43.67
2018-09-14T02:21:31.724Z,82.37
2018-09-14T02:23:59.749Z,74.23
2018-09-14T02:26:27.856Z,57.83
2018-09-14T02:28:55.933Z,45.37
2018-09-14T02:31:23.922Z,41.83
2018-09-14T02:33:51.972Z,64.20
2018-09-14T02:36:19.972Z,73.10
2018-09-14T02:38:48.036Z,57.10
2018-09-14T02:41:16.038Z,105.53
2018-09-14T02:43:44.031Z,65.13
2018-09-14T02:46:12.073Z,65.27
2018-09-14T02:48:40.129Z,62.67
2018-09-14T02:51:08.173Z,59.60
2018-09-14T02:53:36.189Z,37.83
2018-09-14T02:56:04.279Z,75.57
2018-09-14T02:58:32.277Z,82.90
2018-09-14T03:01:00.280Z,27.23
2018-09-14T03:03:28.283Z,56.47
2018-09-14T03:05:56.334Z,24.70
2018-09-14T03:08:24.397Z,48.30
2018-09-14T03:10:52.416Z,58.77
2018-09-14T03:13:20.460Z,58.83
2018-09-14T03:15:48.901Z,47.83
2018-09-14T03:18:16.909Z,64.87
2018-09-14T03:20:44.958Z,51.27
2018-09-14T03:23:12.982Z,111.03
2018-09-14T03:25:41.122Z,176.47
2018-09-14T03:28:09.121Z,78.40
2018-09-14T03:30:37.237Z,68.90
2018-09-14T03:33:05.256Z,91.10
2018-09-14T03:35:33.281Z,110.73
2018-09-14T03:38:01.307Z,116.63
2018-09-14T03:40:29.327Z,60.60
2018-09-14T03:42:57.341Z,74.37
2018-09-14T03:45:25.355Z,76.57
2018-09-14T03:47:53.386Z,100.43
2018-09-14T03:50:21.461Z,87.87
2018-09-14T03:52:49.494Z,74.83
2018-09-14T03:55:17.516Z,92.10
2018-09-14T03:57:45.565Z,82.77
2018-09-14T04:00:13.617Z,91.77
2018-09-14T04:02:41.643Z,109.07
2018-09-14T04:05:09.682Z,45.53
2018-09-14T04:07:37.755Z,42.80
2018-09-14T04:10:05.933Z,53.00
2018-09-14T04:12:33.941Z,62.90
2018-09-14T04:15:01.940Z,91.53
2018-09-14T04:17:29.950Z,93.00
2018-09-14T04:19:57.954Z,67.97
2018-09-14T04:22:26.100Z,52.70
2018-09-14T04:24:54.165Z,90.40
2018-09-14T04:27:22.170Z,48.03
2018-09-14T04:29:50.192Z,75.90
2018-09-14T04:32:18.195Z,41.07
2018-09-14T04:34:46.189Z,83.27
2018-09-14T04:37:14.389Z,111.17
2018-09-14T04:39:42.437Z,124.60
2018-09-14T04:42:10.468Z,43.80
2018-09-14T04:44:38.520Z,73.90
2018-09-14T04:47:06.608Z,45.90
2018-09-14T04:49:34.699Z,40.63
2018-09-14T04:52:02.727Z,101.47
2018-09-14T04:54:30.723Z,44.23
2018-09-14T04:56:58.739Z,55.90
2018-09-14T04:59:26.828Z,43.43
2018-09-14T05:01:54.852Z,100.67
2018-09-14T05:04:23.868Z,50.40
2018-09-14T05:06:52.353Z,73.20
2018-09-14T05:09:20.364Z,41.10
2018-09-14T05:11:48.465Z,66.20
2018-09-14T05:14:16.557Z,131.47
2018-09-14T05:16:44.519Z,121.53
2018-09-14T05:19:12.540Z,79.03
2018-09-14T05:21:40.593Z,125.50
2018-09-14T05:24:08.872Z,75.83
2018-09-14T05:26:36.967Z,51.23
2018-09-14T05:29:05.266Z,53.73
2018-09-14T05:31:33.373Z,33.50
2018-09-14T05:34:01.422Z,59.33
2018-09-14T05:36:29.417Z,48.57
2018-09-14T05:38:57.424Z,34.97
2018-09-14T05:41:25.449Z,22.40
2018-09-14T05:43:53.481Z,92.93
2018-09-14T05:46:21.544Z,45.53
2018-09-14T05:48:49.570Z,59.73
2018-09-14T05:51:17.576Z,109.60
2018-09-14T05:53:45.596Z,103.27
2018-09-14T05:56:13.602Z,135.83
2018-09-14T05:58:41.677Z,188.83
2018-09-14T06:01:09.685Z,84.23
2018-09-14T06:03:37.832Z,146.90
2018-09-14T06:06:05.852Z,20.73
2018-09-14T06:08:33.929Z,62.50
2018-09-14T06:11:01.992Z,64.90
2018-09-14T06:13:30.089Z,140.37
2018-09-14T06:15:58.140Z,78.93
2018-09-14T06:18:26.161Z,125.87
2018-09-14T06:20:54.249Z,67.43
2018-09-14T06:23:22.447Z,74.53
2018-09-14T06:25:50.482Z,86.60
2018-09-14T06:28:18.549Z,103.83
2018-09-14T06:30:46.549Z,63.70
2018-09-14T06:33:14.564Z,141.60
2018-09-14T06:35:42.634Z,69.20
2018-09-14T06:38:10.763Z,190.83
2018-09-14T06:40:38.670Z,105.60
2018-09-14T06:43:06.692Z,71.87
2018-09-14T06:45:34.688Z,163.00
2018-09-14T06:48:02.743Z,185.37
2018-09-14T06:50:30.725Z,29.57
2018-09-14T06:52:58.805Z,69.87
2018-09-14T06:55:26.798Z,54.10
2018-09-14T06:57:54.816Z,90.63
2018-09-14T07:00:22.957Z,45.57
2018-09-14T07:02:50.908Z,42.47
2018-09-14T07:05:18.944Z,64.60
2018-09-14T07:07:46.968Z,70.50
2018-09-14T07:10:15.028Z,64.90
2018-09-14T07:12:43.070Z,52.77
2018-09-14T07:15:11.097Z,39.40
2018-09-14T07:17:39.316Z,61.13
2018-09-14T07:20:07.308Z,36.80
2018-09-14T07:22:35.348Z,42.47
2018-09-14T07:25:04.281Z,30.93
2018-09-14T07:27:32.273Z,41.77
2018-09-14T07:30:00.345Z,18.93
2018-09-14T07:32:28.391Z,17.37
2018-09-14T07:34:56.404Z,13.00
2018-09-14T07:37:24.511Z,22.80
2018-09-14T07:39:52.509Z,16.00
2018-09-14T07:42:20.547Z,15.43
2018-09-14T07:44:48.537Z,11.80
2018-09-14T07:47:16.557Z,19.67
2018-09-14T07:49:44.612Z,13.00
2018-09-14T07:52:12.656Z,21.73
2018-09-14T07:54:40.668Z,16.50
2018-09-14T07:57:08.689Z,20.40
2018-09-14T07:59:36.776Z,16.63
2018-09-14T08:02:04.922Z,19.10
2018-09-14T08:04:32.949Z,21.90
2018-09-14T08:07:01.075Z,20.37
2018-09-14T08:09:29.192Z,20.77
2018-09-14T08:11:57.498Z,18.83
2018-09-14T08:14:25.433Z,17.10
2018-09-14T08:16:53.473Z,20.20
2018-09-14T08:19:21.540Z,18.60
2018-09-14T08:21:49.909Z,16.73
2018-09-14T08:24:17.833Z,18.30
2018-09-14T08:26:45.914Z,19.43
2018-09-14T08:29:13.903Z,21.53
2018-09-14T08:31:41.925Z,18.70
2018-09-14T08:34:09.972Z,20.63
2018-09-14T08:36:38.056Z,17.60
2018-09-14T08:39:08.693Z,19.43
2018-09-14T08:41:36.755Z,19.60
2018-09-14T08:44:04.813Z,16.97
2018-09-14T08:46:32.915Z,16.83
2018-09-14T08:49:00.965Z,14.80
2018-09-14T08:51:29.012Z,15.87
2018-09-14T08:53:57.076Z,19.90
2018-09-14T08:56:25.323Z,18.10
2018-09-14T08:58:53.357Z,17.87
2018-09-14T09:01:21.404Z,18.43
2018-09-14T09:03:49.779Z,19.73
2018-09-14T09:06:17.733Z,19.67
2018-09-14T09:08:45.884Z,16.50
2018-09-14T09:11:13.960Z,19.00
2018-09-14T09:13:42.038Z,20.20
2018-09-14T09:16:10.081Z,23.00
2018-09-14T09:18:38.129Z,21.87
2018-09-14T09:21:06.195Z,20.63
2018-09-14T09:23:34.353Z,19.13
2018-09-14T09:26:02.344Z,25.53
2018-09-14T09:28:30.556Z,21.00
2018-09-14T09:30:58.584Z,21.90
2018-09-14T09:33:26.732Z,26.27
2018-09-14T09:35:54.970Z,21.03
2018-09-14T09:38:23.006Z,18.63
2018-09-14T09:40:51.119Z,20.70
2018-09-14T09:43:19.149Z,15.73
2018-09-14T09:45:47.345Z,13.60
2018-09-14T09:48:15.342Z,16.73
2018-09-14T09:50:43.482Z,18.47
2018-09-14T09:53:11.455Z,13.57
2018-09-14T09:55:39.543Z,22.33
2018-09-14T09:58:08.065Z,19.83
2018-09-14T10:00:41.535Z,21.93
2018-09-14T10:03:15.108Z,20.43
2018-09-14T10:05:48.804Z,23.90
2018-09-14T10:08:16.812Z,30.00
2018-09-14T10:10:45.912Z,23.73
2018-09-14T10:13:13.969Z,27.57
2018-09-14T10:15:42.166Z,25.00
2018-09-14T10:18:10.208Z,32.40
2018-09-14T10:20:38.347Z,29.97
2018-09-14T10:23:06.466Z,29.53
2018-09-14T10:25:34.537Z,31.03
2018-09-14T10:28:02.695Z,38.30
2018-09-14T10:30:30.756Z,28.50
2018-09-14T10:32:58.761Z,28.87
2018-09-14T10:35:26.910Z,25.83
2018-09-14T10:37:55.268Z,26.43
2018-09-14T10:40:23.396Z,23.53
2018-09-14T10:42:51.439Z,30.33
2018-09-14T10:45:19.721Z,26.73
2018-09-14T10:47:47.988Z,27.20
2018-09-14T10:50:16.049Z,25.00
2018-09-14T10:52:44.160Z,28.67
2018-09-14T10:55:12.239Z,29.03
2018-09-14T10:57:40.224Z,25.83
2018-09-14T11:00:08.276Z,25.53
2018-09-14T11:02:36.288Z,29.83
2018-09-14T11:05:04.309Z,23.00
2018-09-14T11:07:32.482Z,27.03
2018-09-14T11:10:00.569Z,25.23
2018-09-14T11:12:28.622Z,27.57
2018-09-14T11:14:56.620Z,21.07
2018-09-14T11:17:24.641Z,25.77
2018-09-14T11:19:52.720Z,29.57
2018-09-14T11:22:20.750Z,30.90
2018-09-14T11:24:48.922Z,26.23
2018-09-14T11:27:16.829Z,29.20
2018-09-14T11:29:44.864Z,32.10
2018-09-14T11:32:12.936Z,28.93
2018-09-14T11:34:40.922Z,26.80
2018-09-14T11:37:08.981Z,30.10
2018-09-14T11:39:37.020Z,25.40
2018-09-14T11:42:05.115Z,25.93
2018-09-14T11:44:33.180Z,23.50
2018-09-14T11:47:01.307Z,26.43
2018-09-14T11:49:29.312Z,19.73
2018-09-14T11:51:57.397Z,34.30
2018-09-14T11:54:25.564Z,17.87
2018-09-14T11:56:53.564Z,27.30
2018-09-14T11:59:21.678Z,21.37
2018-09-14T12:01:49.766Z,31.17
2018-09-14T12:04:17.867Z,18.57
2018-09-14T12:06:45.893Z,15.73
2018-09-14T12:09:13.919Z,13.80
2018-09-14T12:11:42.167Z,14.73
2018-09-14T12:14:10.749Z,11.80
2018-09-14T12:16:38.816Z,15.60
2018-09-14T12:19:06.986Z,12.07
2018-09-14T12:21:34.993Z,10.97
2018-09-14T12:24:03.033Z,10.63
2018-09-14T12:26:31.069Z,10.07
2018-09-14T12:28:59.126Z,13.33
2018-09-14T12:31:27.192Z,15.03
2018-09-14T12:33:55.229Z,15.20
2018-09-14T12:36:23.318Z,11.47
2018-09-14T12:38:51.412Z,9.90
2018-09-14T12:41:19.461Z,11.83
2018-09-14T12:43:47.597Z,13.23
2018-09-14T12:46:15.588Z,8.77
2018-09-14T12:48:44.660Z,11.03
2018-09-14T12:51:12.645Z,9.10
2018-09-14T12:53:40.674Z,12.60
2018-09-14T12:56:08.718Z,10.77
2018-09-14T12:58:36.772Z,13.73
2018-09-14T13:01:04.772Z,12.57
2018-09-14T13:03:32.830Z,8.87
2018-09-14T13:06:00.839Z,9.53
2018-09-14T13:08:28.909Z,13.77
2018-09-14T13:10:56.965Z,11.93
2018-09-14T13:13:25.601Z,12.07
2018-09-14T13:15:53.946Z,8.90
2018-09-14T13:18:21.996Z,12.23
2018-09-14T13:20:50.169Z,9.43
2018-09-14T13:23:18.279Z,17.43
2018-09-14T13:25:46.328Z,7.60
2018-09-14T13:28:14.339Z,9.77
2018-09-14T13:30:42.456Z,13.07
2018-09-14T13:33:10.473Z,12.10
2018-09-14T13:35:38.519Z,11.07
2018-09-14T13:38:06.748Z,8.33
2018-09-14T13:40:34.782Z,9.20
2018-09-14T13:43:02.819Z,9.93
2018-09-14T13:45:30.882Z,9.50
2018-09-14T13:47:59.071Z,13.67
2018-09-14T13:50:27.113Z,10.80
2018-09-14T13:52:55.206Z,10.73
2018-09-14T13:55:23.175Z,10.00
2018-09-14T13:57:51.261Z,14.33
2018-09-14T14:00:19.307Z,7.23
2018-09-14T14:02:47.381Z,8.07
2018-09-14T14:05:15.419Z,13.37
2018-09-14T14:07:43.460Z,11.43
2018-09-14T14:10:11.567Z,8.47
2018-09-14T14:12:39.695Z,7.50
2018-09-14T14:15:07.707Z,7.80
2018-09-14T14:17:37.062Z,7.17
2018-09-14T14:20:04.916Z,10.23
2018-09-14T14:22:33.033Z,12.33
2018-09-14T14:25:01.080Z,10.67
2018-09-14T14:27:29.408Z,13.33
2018-09-14T14:29:57.445Z,13.70
2018-09-14T14:32:25.629Z,14.20
2018-09-14T14:34:53.761Z,8.27
2018-09-14T14:37:21.847Z,10.70
2018-09-14T14:39:49.866Z,7.83
2018-09-14T14:42:17.929Z,13.43
2018-09-14T14:44:46.045Z,8.70
2018-09-14T14:47:14.240Z,11.97
2018-09-14T14:49:42.440Z,14.80
2018-09-14T14:52:10.556Z,9.57
2018-09-14T14:54:38.751Z,5.23
2018-09-14T14:57:06.835Z,12.10
2018-09-14T14:59:35.061Z,8.30
2018-09-14T15:02:03.205Z,9.20
2018-09-14T15:04:31.404Z,8.20
2018-09-14T15:06:59.449Z,7.63
2018-09-14T15:09:27.484Z,10.57
2018-09-14T15:11:55.511Z,6.70
2018-09-14T15:14:23.632Z,9.80
2018-09-14T15:16:51.752Z,13.13
2018-09-14T15:19:19.920Z,6.97
2018-09-14T15:21:47.965Z,10.50
2018-09-14T15:24:15.968Z,6.03
2018-09-14T15:26:44.013Z,6.60
2018-09-14T15:29:12.092Z,11.07
2018-09-14T15:31:40.109Z,8.33
2018-09-14T15:34:08.184Z,11.53
2018-09-14T15:36:36.235Z,14.03
2018-09-14T15:39:09.705Z,9.70
2018-09-14T15:41:37.773Z,13.63
2018-09-14T15:44:05.860Z,10.03
2018-09-14T15:46:33.961Z,8.73
2018-09-14T15:49:02.016Z,6.30
2018-09-14T15:51:30.241Z,6.80
2018-09-14T15:53:58.288Z,11.60
2018-09-14T15:56:26.626Z,13.40
2018-09-14T15:58:54.756Z,12.27
2018-09-14T16:01:22.898Z,13.23
2018-09-14T16:03:51.034Z,12.03
2018-09-14T16:06:19.135Z,9.73
2018-09-14T16:08:47.209Z,14.67
2018-09-14T16:11:16.341Z,11.30
2018-09-14T16:13:45.306Z,12.27
2018-09-14T16:16:13.378Z,8.27
2018-09-14T16:18:41.417Z,8.43
2018-09-14T16:21:09.437Z,7.67
2018-09-14T16:23:37.436Z,7.93
2018-09-14T16:26:05.462Z,12.57
2018-09-14T16:28:33.523Z,10.13
2018-09-14T16:31:01.609Z,5.67
2018-09-14T16:33:29.632Z,16.97
2018-09-14T16:35:57.711Z,13.00
2018-09-14T16:38:25.845Z,10.67
2018-09-14T16:40:53.877Z,8.90
2018-09-14T16:43:21.887Z,12.13
2018-09-14T16:45:49.946Z,9.00
2018-09-14T16:48:17.946Z,6.20
2018-09-14T16:50:45.974Z,10.50
2018-09-14T16:53:14.024Z,7.10
2018-09-14T16:55:42.044Z,13.70
2018-09-14T16:58:10.121Z,9.93
2018-09-14T17:00:38.130Z,19.97
2018-09-14T17:03:06.249Z,10.40
2018-09-14T17:05:34.240Z,12.80
2018-09-14T17:08:02.267Z,8.63
2018-09-14T17:10:30.282Z,11.83
2018-09-14T17:12:58.321Z,28.40
2018-09-14T17:15:26.339Z,10.00
2018-09-14T17:17:54.373Z,6.10
2018-09-14T17:20:22.445Z,6.90
2018-09-14T17:22:50.487Z,20.63
2018-09-14T17:25:18.516Z,29.70
2018-09-14T17:27:46.561Z,22.83
2018-09-14T17:30:14.578Z,6.70
2018-09-14T17:32:42.627Z,15.93
2018-09-14T17:35:10.668Z,13.63
2018-09-14T17:37:38.730Z,13.43
2018-09-14T17:40:06.745Z,8.07
2018-09-14T17:42:34.751Z,9.20
2018-09-14T17:45:02.790Z,9.70
2018-09-14T17:47:31.961Z,11.17
2018-09-14T17:50:00.066Z,12.23
2018-09-14T17:52:28.201Z,12.30
2018-09-14T17:54:56.278Z,18.83
2018-09-14T17:57:24.417Z,11.50
2018-09-14T17:59:52.566Z,11.67
2018-09-14T18:02:20.643Z,10.20
2018-09-14T18:04:48.879Z,6.87
2018-09-14T18:07:16.887Z,12.37
2018-09-14T18:09:45.297Z,14.60
2018-09-14T18:12:13.324Z,10.93
2018-09-14T18:14:41.444Z,9.57
2018-09-14T18:17:09.501Z,5.50
2018-09-14T18:19:37.525Z,9.20
2018-09-14T18:22:05.590Z,15.47
2018-09-14T18:24:34.020Z,8.80
2018-09-14T18:27:02.039Z,10.10
2018-09-14T18:29:30.073Z,9.60
2018-09-14T18:31:58.081Z,8.53
2018-09-14T18:34:26.119Z,7.70
2018-09-14T18:36:54.427Z,11.63
2018-09-14T18:39:22.616Z,13.40
2018-09-14T18:41:50.933Z,8.30
2018-09-14T18:44:19.178Z,18.07
2018-09-14T18:46:47.434Z,16.30
2018-09-14T18:49:15.500Z,18.23
2018-09-14T18:51:43.569Z,10.47
2018-09-14T18:54:11.643Z,10.30
2018-09-14T18:56:39.701Z,9.67
2018-09-14T18:59:07.720Z,8.50
2018-09-14T19:01:35.749Z,8.13
2018-09-14T19:04:03.847Z,18.17
2018-09-14T19:06:31.960Z,14.67
2018-09-14T19:09:00.044Z,10.60
2018-09-14T19:11:28.121Z,12.33
2018-09-14T19:13:56.189Z,6.27
2018-09-14T19:16:24.247Z,10.90
2018-09-14T19:18:52.528Z,13.07
2018-09-14T19:21:20.589Z,10.47
2018-09-14T19:23:48.613Z,8.50
2018-09-14T19:26:16.685Z,10.03
2018-09-14T19:28:44.732Z,8.30
2018-09-14T19:31:12.762Z,7.13
2018-09-14T19:33:40.754Z,5.70
2018-09-14T19:36:08.808Z,16.67
2018-09-14T19:38:36.848Z,8.80
2018-09-14T19:41:04.853Z,8.13
2018-09-14T19:43:32.909Z,7.97
2018-09-14T19:46:00.928Z,11.30
2018-09-14T19:48:28.973Z,11.53
2018-09-14T19:50:57.063Z,15.63
2018-09-14T19:53:25.070Z,14.73
2018-09-14T19:55:53.080Z,12.23
2018-09-14T19:58:21.166Z,7.53
2018-09-14T20:00:49.792Z,11.40
2018-09-14T20:03:17.889Z,7.10
2018-09-14T20:05:45.937Z,7.63
2018-09-14T20:08:13.993Z,9.83
2018-09-14T20:10:42.169Z,10.73
2018-09-14T20:13:10.197Z,14.23
2018-09-14T20:15:38.300Z,12.50
2018-09-14T20:18:06.444Z,10.87
2018-09-14T20:20:34.554Z,12.63
2018-09-14T20:23:02.578Z,7.37
2018-09-14T20:25:30.643Z,12.63
2018-09-14T20:27:58.660Z,12.63
2018-09-14T20:30:26.716Z,13.57
2018-09-14T20:32:54.743Z,8.80
2018-09-14T20:35:22.914Z,11.00
2018-09-14T20:37:57.913Z,11.20
2018-09-14T20:40:25.970Z,8.83
2018-09-14T20:42:54.084Z,12.87
2018-09-14T20:45:22.056Z,8.90
2018-09-14T20:47:50.057Z,10.57
2018-09-14T20:50:18.237Z,14.40
2018-09-14T20:52:46.234Z,18.37
2018-09-14T20:55:14.276Z,12.20
2018-09-14T20:57:42.329Z,11.27
2018-09-14T21:00:10.421Z,14.50
2018-09-14T21:02:38.505Z,8.93
2018-09-14T21:05:06.612Z,16.90
2018-09-14T21:07:34.647Z,11.37
2018-09-14T21:10:02.752Z,13.33
2018-09-14T21:12:30.801Z,11.93
2018-09-14T21:14:58.880Z,19.63
2018-09-14T21:17:26.969Z,19.50
2018-09-14T21:19:54.988Z,10.50
2018-09-14T21:22:23.192Z,27.00
2018-09-14T21:24:51.226Z,12.60
2018-09-14T21:27:19.244Z,14.20
2018-09-14T21:29:47.277Z,11.90
2018-09-14T21:32:15.338Z,12.67
2018-09-14T21:34:43.448Z,21.23
2018-09-14T21:37:11.511Z,18.47
2018-09-14T21:39:39.510Z,14.50
2018-09-14T21:42:07.525Z,23.13
2018-09-14T21:44:35.580Z,14.87
2018-09-14T21:47:03.607Z,29.77
2018-09-14T21:49:31.699Z,12.60
2018-09-14T21:51:59.965Z,21.70
2018-09-14T21:54:27.979Z,16.50
2018-09-14T21:56:55.988Z,25.77
2018-09-14T21:59:24.061Z,13.13
2018-09-14T22:01:52.112Z,16.07
2018-09-14T22:04:20.176Z,16.07
2018-09-14T22:06:48.275Z,21.53
2018-09-14T22:09:16.316Z,17.53
2018-09-14T22:11:44.352Z,12.33
2018-09-14T22:14:12.353Z,15.80
2018-09-14T22:16:40.376Z,18.13
2018-09-14T22:19:08.433Z,22.17
2018-09-14T22:21:37.721Z,15.20
2018-09-14T22:24:05.715Z,15.60
2018-09-14T22:26:33.713Z,23.07
2018-09-14T22:29:01.851Z,15.90
2018-09-14T22:31:29.865Z,23.90
2018-09-14T22:33:57.889Z,16.30
2018-09-14T22:36:25.912Z,13.43
2018-09-14T22:38:53.992Z,17.47
2018-09-14T22:41:22.130Z,17.53
2018-09-14T22:43:50.162Z,17.33
2018-09-14T22:46:18.181Z,14.07
2018-09-14T22:48:46.352Z,18.73
2018-09-14T22:51:14.420Z,14.83
2018-09-14T22:53:42.476Z,17.87
2018-09-14T22:56:10.502Z,15.03
2018-09-14T22:58:38.710Z,17.87
2018-09-14T23:01:13.064Z,12.73
2018-09-14T23:03:41.158Z,16.57
2018-09-14T23:06:09.187Z,14.10
2018-09-14T23:08:37.253Z,16.10
2018-09-14T23:11:05.328Z,16.80
2018-09-14T23:13:33.442Z,19.43
2018-09-14T23:16:01.864Z,19.00
2018-09-14T23:18:30.853Z,16.87
2018-09-14T23:20:59.376Z,13.33
2018-09-14T23:23:27.560Z,25.70
2018-09-14T23:25:58.508Z,15.20
2018-09-14T23:28:26.650Z,15.00
2018-09-14T23:30:54.640Z,18.43
2018-09-14T23:33:22.628Z,19.20
2018-09-14T23:35:50.753Z,19.23
2018-09-14T23:38:18.761Z,23.23
2018-09-14T23:40:46.848Z,22.00
2018-09-14T23:43:14.852Z,27.93
2018-09-14T23:45:42.880Z,19.50
2018-09-14T23:48:11.000Z,15.17
2018-09-14T23:50:39.037Z,13.23
2018-09-14T23:53:07.077Z,15.20
2018-09-14T23:55:38.859Z,14.83
2018-09-14T23:58:06.840Z,17.33
